sensor_id;sensor_type;location;lat;lon;timestamp;P1;durP1;ratioP1;P2;durP2;ratioP2
43744;SDS011;29359;53.048;8.732;2023-05-16T00:00:29;4.45;;;1.40;;
43744;SDS011;29359;53.048;8.732;2023-05-16T00:02:35;4.38;;;1.50;;
43744;SDS011;29359;53.048;8.732;2023-05-16T00:04:38;6.35;;;1.75;;
43744;SDS011;29359;53.048;8.732;2023-05-16T00:06:39;6.93;;;1.60;;
43744;SDS011;29359;53.048;8.732;2023-05-16T00:08:41;4.03;;;1.25;;
43744;SDS011;29359;53.048;8.732;2023-05-16T00:10:43;5.20;;;1.80;;
43744;SDS011;29359;53.048;8.732;2023-05-16T00:12:44;7.97;;;1.52;;
43744;SDS011;29359;53.048;8.732;2023-05-16T00:14:48;5.28;;;1.33;;
43744;SDS011;29359;53.048;8.732;2023-05-16T00:16:54;6.82;;;2.17;;
43744;SDS011;29359;53.048;8.732;2023-05-16T00:18:59;5.38;;;1.90;;
43744;SDS011;29359;53.048;8.732;2023-05-16T00:21:01;4.82;;;1.50;;
43744;SDS011;29359;53.048;8.732;2023-05-16T00:23:03;4.95;;;1.23;;
43744;SDS011;29359;53.048;8.732;2023-05-16T00:25:05;3.38;;;1.20;;
43744;SDS011;29359;53.048;8.732;2023-05-16T00:27:08;6.50;;;1.83;;
43744;SDS011;29359;53.048;8.732;2023-05-16T00:29:10;12.02;;;1.77;;
43744;SDS011;29359;53.048;8.732;2023-05-16T00:31:12;5.05;;;1.38;;
43744;SDS011;29359;53.048;8.732;2023-05-16T00:33:13;8.25;;;1.80;;
43744;SDS011;29359;53.048;8.732;2023-05-16T00:35:15;7.80;;;1.80;;
43744;SDS011;29359;53.048;8.732;2023-05-16T00:37:16;7.78;;;1.50;;
43744;SDS011;29359;53.048;8.732;2023-05-16T00:39:18;9.90;;;1.92;;
43744;SDS011;29359;53.048;8.732;2023-05-16T00:41:19;7.75;;;2.03;;
43744;SDS011;29359;53.048;8.732;2023-05-16T00:43:22;10.02;;;2.10;;
43744;SDS011;29359;53.048;8.732;2023-05-16T00:45:23;10.10;;;2.30;;
43744;SDS011;29359;53.048;8.732;2023-05-16T00:47:25;16.98;;;2.35;;
43744;SDS011;29359;53.048;8.732;2023-05-16T00:49:26;12.27;;;2.20;;
43744;SDS011;29359;53.048;8.732;2023-05-16T00:51:29;6.50;;;1.70;;
43744;SDS011;29359;53.048;8.732;2023-05-16T00:53:31;6.55;;;1.85;;
43744;SDS011;29359;53.048;8.732;2023-05-16T00:55:33;14.45;;;1.73;;
43744;SDS011;29359;53.048;8.732;2023-05-16T00:57:35;11.05;;;2.42;;
43744;SDS011;29359;53.048;8.732;2023-05-16T00:59:37;9.18;;;2.10;;
43744;SDS011;29359;53.048;8.732;2023-05-16T01:01:40;9.90;;;2.08;;
43744;SDS011;29359;53.048;8.732;2023-05-16T01:03:42;12.57;;;1.98;;
43744;SDS011;29359;53.048;8.732;2023-05-16T01:05:47;12.98;;;2.00;;
43744;SDS011;29359;53.048;8.732;2023-05-16T01:07:49;10.77;;;2.00;;
43744;SDS011;29359;53.048;8.732;2023-05-16T01:09:51;13.52;;;2.42;;
43744;SDS011;29359;53.048;8.732;2023-05-16T01:14:37;10.48;;;2.15;;
43744;SDS011;29359;53.048;8.732;2023-05-16T01:17:22;7.90;;;1.65;;
43744;SDS011;29359;53.048;8.732;2023-05-16T01:19:50;9.38;;;1.85;;
43744;SDS011;29359;53.048;8.732;2023-05-16T01:22:16;10.50;;;1.70;;
43744;SDS011;29359;53.048;8.732;2023-05-16T01:24:32;6.55;;;1.55;;
43744;SDS011;29359;53.048;8.732;2023-05-16T01:26:40;22.85;;;3.33;;
43744;SDS011;29359;53.048;8.732;2023-05-16T01:28:43;10.15;;;2.17;;
43744;SDS011;29359;53.048;8.732;2023-05-16T01:30:46;11.05;;;2.25;;
43744;SDS011;29359;53.048;8.732;2023-05-16T01:32:48;14.57;;;2.10;;
43744;SDS011;29359;53.048;8.732;2023-05-16T01:34:49;8.18;;;1.90;;
43744;SDS011;29359;53.048;8.732;2023-05-16T01:41:20;13.00;;;2.58;;
43744;SDS011;29359;53.048;8.732;2023-05-16T01:43:29;16.17;;;2.33;;
43744;SDS011;29359;53.048;8.732;2023-05-16T01:45:46;12.70;;;2.50;;
43744;SDS011;29359;53.048;8.732;2023-05-16T01:48:03;12.50;;;2.03;;
43744;SDS011;29359;53.048;8.732;2023-05-16T01:50:14;11.00;;;1.88;;
43744;SDS011;29359;53.048;8.732;2023-05-16T01:52:31;16.90;;;2.15;;
43744;SDS011;29359;53.048;8.732;2023-05-16T01:54:38;11.02;;;1.75;;
43744;SDS011;29359;53.048;8.732;2023-05-16T01:56:52;10.57;;;2.65;;
43744;SDS011;29359;53.048;8.732;2023-05-16T01:58:55;12.82;;;2.15;;
43744;SDS011;29359;53.048;8.732;2023-05-16T02:01:03;11.65;;;1.73;;
43744;SDS011;29359;53.048;8.732;2023-05-16T02:03:06;9.60;;;2.20;;
43744;SDS011;29359;53.048;8.732;2023-05-16T02:05:08;9.57;;;1.77;;
43744;SDS011;29359;53.048;8.732;2023-05-16T02:07:09;9.68;;;1.83;;
43744;SDS011;29359;53.048;8.732;2023-05-16T02:09:12;10.75;;;2.92;;
43744;SDS011;29359;53.048;8.732;2023-05-16T02:11:13;13.23;;;2.70;;
43744;SDS011;29359;53.048;8.732;2023-05-16T02:13:15;9.93;;;2.40;;
43744;SDS011;29359;53.048;8.732;2023-05-16T02:15:16;11.30;;;2.17;;
43744;SDS011;29359;53.048;8.732;2023-05-16T02:17:18;16.48;;;2.15;;
43744;SDS011;29359;53.048;8.732;2023-05-16T02:19:19;16.52;;;2.45;;
43744;SDS011;29359;53.048;8.732;2023-05-16T02:21:21;20.17;;;2.47;;
43744;SDS011;29359;53.048;8.732;2023-05-16T02:23:22;10.10;;;1.90;;
43744;SDS011;29359;53.048;8.732;2023-05-16T02:25:24;11.70;;;1.92;;
43744;SDS011;29359;53.048;8.732;2023-05-16T02:27:26;10.48;;;2.20;;
43744;SDS011;29359;53.048;8.732;2023-05-16T02:29:28;12.05;;;2.45;;
43744;SDS011;29359;53.048;8.732;2023-05-16T02:31:30;17.98;;;2.72;;
43744;SDS011;29359;53.048;8.732;2023-05-16T02:33:33;14.68;;;2.22;;
43744;SDS011;29359;53.048;8.732;2023-05-16T02:35:34;15.32;;;2.10;;
43744;SDS011;29359;53.048;8.732;2023-05-16T02:37:36;13.82;;;2.40;;
43744;SDS011;29359;53.048;8.732;2023-05-16T02:39:39;12.57;;;2.03;;
43744;SDS011;29359;53.048;8.732;2023-05-16T02:41:40;21.15;;;3.53;;
43744;SDS011;29359;53.048;8.732;2023-05-16T02:43:42;13.85;;;2.08;;
43744;SDS011;29359;53.048;8.732;2023-05-16T02:45:47;8.50;;;2.05;;
43744;SDS011;29359;53.048;8.732;2023-05-16T02:47:48;11.70;;;2.28;;
43744;SDS011;29359;53.048;8.732;2023-05-16T02:49:50;13.52;;;2.47;;
43744;SDS011;29359;53.048;8.732;2023-05-16T02:51:54;14.40;;;2.20;;
43744;SDS011;29359;53.048;8.732;2023-05-16T02:53:56;11.38;;;2.30;;
43744;SDS011;29359;53.048;8.732;2023-05-16T02:55:59;12.82;;;2.78;;
43744;SDS011;29359;53.048;8.732;2023-05-16T02:58:01;19.33;;;2.80;;
43744;SDS011;29359;53.048;8.732;2023-05-16T03:00:02;14.40;;;2.30;;
43744;SDS011;29359;53.048;8.732;2023-05-16T03:02:06;22.85;;;2.63;;
43744;SDS011;29359;53.048;8.732;2023-05-16T03:04:08;13.43;;;2.60;;
43744;SDS011;29359;53.048;8.732;2023-05-16T03:06:10;14.57;;;2.85;;
43744;SDS011;29359;53.048;8.732;2023-05-16T03:08:11;15.93;;;2.60;;
43744;SDS011;29359;53.048;8.732;2023-05-16T03:10:13;9.63;;;1.90;;
43744;SDS011;29359;53.048;8.732;2023-05-16T03:12:14;12.40;;;2.65;;
43744;SDS011;29359;53.048;8.732;2023-05-16T03:14:16;16.05;;;2.20;;
43744;SDS011;29359;53.048;8.732;2023-05-16T03:16:17;9.68;;;2.35;;
43744;SDS011;29359;53.048;8.732;2023-05-16T03:18:19;9.55;;;1.95;;
43744;SDS011;29359;53.048;8.732;2023-05-16T03:20:21;15.70;;;2.15;;
43744;SDS011;29359;53.048;8.732;2023-05-16T03:22:22;15.30;;;1.90;;
43744;SDS011;29359;53.048;8.732;2023-05-16T03:24:24;15.98;;;2.63;;
43744;SDS011;29359;53.048;8.732;2023-05-16T03:26:26;13.95;;;2.00;;
43744;SDS011;29359;53.048;8.732;2023-05-16T03:28:27;14.45;;;1.95;;
43744;SDS011;29359;53.048;8.732;2023-05-16T03:30:29;17.58;;;2.67;;
43744;SDS011;29359;53.048;8.732;2023-05-16T03:32:30;12.20;;;2.25;;
43744;SDS011;29359;53.048;8.732;2023-05-16T03:34:33;18.77;;;2.33;;
43744;SDS011;29359;53.048;8.732;2023-05-16T03:36:35;17.92;;;1.88;;
43744;SDS011;29359;53.048;8.732;2023-05-16T03:38:39;8.05;;;1.55;;
43744;SDS011;29359;53.048;8.732;2023-05-16T03:40:40;12.68;;;2.50;;
43744;SDS011;29359;53.048;8.732;2023-05-16T03:42:42;15.63;;;1.70;;
43744;SDS011;29359;53.048;8.732;2023-05-16T03:44:44;15.90;;;1.98;;
43744;SDS011;29359;53.048;8.732;2023-05-16T03:46:45;13.95;;;2.55;;
43744;SDS011;29359;53.048;8.732;2023-05-16T03:48:47;13.07;;;2.15;;
43744;SDS011;29359;53.048;8.732;2023-05-16T03:50:48;13.27;;;2.28;;
43744;SDS011;29359;53.048;8.732;2023-05-16T03:52:51;9.77;;;1.83;;
43744;SDS011;29359;53.048;8.732;2023-05-16T03:54:54;13.93;;;2.30;;
43744;SDS011;29359;53.048;8.732;2023-05-16T03:56:55;12.40;;;2.20;;
43744;SDS011;29359;53.048;8.732;2023-05-16T03:58:57;11.50;;;1.70;;
43744;SDS011;29359;53.048;8.732;2023-05-16T04:00:58;13.57;;;2.05;;
43744;SDS011;29359;53.048;8.732;2023-05-16T04:03:00;11.55;;;2.35;;
43744;SDS011;29359;53.048;8.732;2023-05-16T04:05:01;8.13;;;1.65;;
43744;SDS011;29359;53.048;8.732;2023-05-16T04:07:03;12.35;;;2.08;;
43744;SDS011;29359;53.048;8.732;2023-05-16T04:09:05;15.90;;;2.20;;
43744;SDS011;29359;53.048;8.732;2023-05-16T04:11:07;14.82;;;3.05;;
43744;SDS011;29359;53.048;8.732;2023-05-16T04:13:09;15.05;;;2.05;;
43744;SDS011;29359;53.048;8.732;2023-05-16T04:15:10;15.05;;;1.90;;
43744;SDS011;29359;53.048;8.732;2023-05-16T04:17:12;9.32;;;1.55;;
43744;SDS011;29359;53.048;8.732;2023-05-16T04:19:13;12.90;;;1.63;;
43744;SDS011;29359;53.048;8.732;2023-05-16T04:21:15;15.05;;;1.95;;
43744;SDS011;29359;53.048;8.732;2023-05-16T04:23:17;8.82;;;1.30;;
43744;SDS011;29359;53.048;8.732;2023-05-16T04:25:18;9.30;;;1.50;;
43744;SDS011;29359;53.048;8.732;2023-05-16T04:27:20;18.70;;;2.67;;
43744;SDS011;29359;53.048;8.732;2023-05-16T04:29:21;16.83;;;1.85;;
43744;SDS011;29359;53.048;8.732;2023-05-16T04:31:26;10.60;;;1.83;;
43744;SDS011;29359;53.048;8.732;2023-05-16T04:33:28;14.00;;;2.47;;
43744;SDS011;29359;53.048;8.732;2023-05-16T04:35:29;15.02;;;2.60;;
43744;SDS011;29359;53.048;8.732;2023-05-16T04:37:31;14.00;;;2.10;;
43744;SDS011;29359;53.048;8.732;2023-05-16T04:39:33;16.45;;;2.97;;
43744;SDS011;29359;53.048;8.732;2023-05-16T04:41:35;11.45;;;1.33;;
43744;SDS011;29359;53.048;8.732;2023-05-16T04:43:37;11.38;;;2.03;;
43744;SDS011;29359;53.048;8.732;2023-05-16T04:45:38;16.30;;;1.88;;
43744;SDS011;29359;53.048;8.732;2023-05-16T04:47:40;13.95;;;2.30;;
43744;SDS011;29359;53.048;8.732;2023-05-16T04:49:42;9.77;;;1.83;;
43744;SDS011;29359;53.048;8.732;2023-05-16T04:51:44;14.90;;;2.20;;
43744;SDS011;29359;53.048;8.732;2023-05-16T04:53:45;12.10;;;2.30;;
43744;SDS011;29359;53.048;8.732;2023-05-16T04:55:47;13.13;;;1.88;;
43744;SDS011;29359;53.048;8.732;2023-05-16T04:57:48;14.18;;;1.85;;
43744;SDS011;29359;53.048;8.732;2023-05-16T04:59:50;19.10;;;1.80;;
43744;SDS011;29359;53.048;8.732;2023-05-16T05:01:51;13.48;;;1.83;;
43744;SDS011;29359;53.048;8.732;2023-05-16T05:03:53;8.73;;;2.05;;
43744;SDS011;29359;53.048;8.732;2023-05-16T05:05:54;18.25;;;2.35;;
43744;SDS011;29359;53.048;8.732;2023-05-16T05:07:56;13.77;;;2.10;;
43744;SDS011;29359;53.048;8.732;2023-05-16T05:09:58;11.52;;;2.22;;
43744;SDS011;29359;53.048;8.732;2023-05-16T05:12:00;9.95;;;1.65;;
43744;SDS011;29359;53.048;8.732;2023-05-16T05:14:01;10.38;;;1.58;;
43744;SDS011;29359;53.048;8.732;2023-05-16T05:16:03;9.15;;;1.88;;
43744;SDS011;29359;53.048;8.732;2023-05-16T05:18:06;15.57;;;1.98;;
43744;SDS011;29359;53.048;8.732;2023-05-16T05:20:08;13.05;;;1.65;;
43744;SDS011;29359;53.048;8.732;2023-05-16T05:22:10;10.05;;;1.65;;
43744;SDS011;29359;53.048;8.732;2023-05-16T05:24:12;16.27;;;2.10;;
43744;SDS011;29359;53.048;8.732;2023-05-16T05:26:13;10.98;;;1.80;;
43744;SDS011;29359;53.048;8.732;2023-05-16T05:28:15;17.08;;;2.00;;
43744;SDS011;29359;53.048;8.732;2023-05-16T05:30:17;12.88;;;1.92;;
43744;SDS011;29359;53.048;8.732;2023-05-16T05:32:18;11.45;;;1.73;;
43744;SDS011;29359;53.048;8.732;2023-05-16T05:34:20;12.20;;;2.38;;
43744;SDS011;29359;53.048;8.732;2023-05-16T05:36:21;11.80;;;2.47;;
43744;SDS011;29359;53.048;8.732;2023-05-16T05:38:23;12.48;;;1.95;;
43744;SDS011;29359;53.048;8.732;2023-05-16T05:40:24;8.52;;;1.60;;
43744;SDS011;29359;53.048;8.732;2023-05-16T05:42:26;16.17;;;2.05;;
43744;SDS011;29359;53.048;8.732;2023-05-16T05:44:27;9.07;;;2.08;;
43744;SDS011;29359;53.048;8.732;2023-05-16T05:46:29;14.35;;;2.50;;
43744;SDS011;29359;53.048;8.732;2023-05-16T05:48:31;16.00;;;1.98;;
43744;SDS011;29359;53.048;8.732;2023-05-16T05:50:33;11.32;;;2.10;;
43744;SDS011;29359;53.048;8.732;2023-05-16T05:52:34;14.80;;;2.15;;
43744;SDS011;29359;53.048;8.732;2023-05-16T05:54:36;10.45;;;2.28;;
43744;SDS011;29359;53.048;8.732;2023-05-16T05:56:37;11.13;;;1.85;;
43744;SDS011;29359;53.048;8.732;2023-05-16T05:58:39;7.40;;;1.50;;
43744;SDS011;29359;53.048;8.732;2023-05-16T06:00:42;16.83;;;2.38;;
43744;SDS011;29359;53.048;8.732;2023-05-16T06:02:43;13.95;;;1.90;;
43744;SDS011;29359;53.048;8.732;2023-05-16T06:04:45;11.65;;;2.10;;
43744;SDS011;29359;53.048;8.732;2023-05-16T06:06:47;13.57;;;2.00;;
43744;SDS011;29359;53.048;8.732;2023-05-16T06:08:48;14.57;;;2.20;;
43744;SDS011;29359;53.048;8.732;2023-05-16T06:10:50;17.20;;;2.45;;
43744;SDS011;29359;53.048;8.732;2023-05-16T06:12:51;14.32;;;2.13;;
43744;SDS011;29359;53.048;8.732;2023-05-16T06:14:53;13.35;;;2.08;;
43744;SDS011;29359;53.048;8.732;2023-05-16T06:16:54;32.72;;;3.35;;
43744;SDS011;29359;53.048;8.732;2023-05-16T06:18:56;16.90;;;2.72;;
43744;SDS011;29359;53.048;8.732;2023-05-16T06:20:57;11.40;;;1.92;;
43744;SDS011;29359;53.048;8.732;2023-05-16T06:23:00;17.13;;;2.45;;
43744;SDS011;29359;53.048;8.732;2023-05-16T06:25:01;9.77;;;1.70;;
43744;SDS011;29359;53.048;8.732;2023-05-16T06:27:03;9.32;;;2.10;;
43744;SDS011;29359;53.048;8.732;2023-05-16T06:29:05;10.77;;;1.42;;
43744;SDS011;29359;53.048;8.732;2023-05-16T06:31:06;14.82;;;1.95;;
43744;SDS011;29359;53.048;8.732;2023-05-16T06:33:08;11.02;;;2.30;;
43744;SDS011;29359;53.048;8.732;2023-05-16T06:35:09;18.08;;;1.85;;
43744;SDS011;29359;53.048;8.732;2023-05-16T06:37:11;27.95;;;3.03;;
43744;SDS011;29359;53.048;8.732;2023-05-16T06:39:12;18.98;;;1.95;;
43744;SDS011;29359;53.048;8.732;2023-05-16T06:41:14;8.23;;;1.48;;
43744;SDS011;29359;53.048;8.732;2023-05-16T06:43:16;6.20;;;1.25;;
43744;SDS011;29359;53.048;8.732;2023-05-16T06:45:18;15.38;;;2.00;;
43744;SDS011;29359;53.048;8.732;2023-05-16T06:47:19;8.18;;;1.45;;
43744;SDS011;29359;53.048;8.732;2023-05-16T06:49:21;11.00;;;1.98;;
43744;SDS011;29359;53.048;8.732;2023-05-16T06:51:24;5.85;;;1.08;;
43744;SDS011;29359;53.048;8.732;2023-05-16T06:53:25;15.40;;;2.22;;
43744;SDS011;29359;53.048;8.732;2023-05-16T06:55:28;11.98;;;1.95;;
43744;SDS011;29359;53.048;8.732;2023-05-16T06:57:30;5.72;;;1.95;;
43744;SDS011;29359;53.048;8.732;2023-05-16T06:59:32;8.63;;;1.98;;
43744;SDS011;29359;53.048;8.732;2023-05-16T07:01:34;15.52;;;1.83;;
43744;SDS011;29359;53.048;8.732;2023-05-16T07:03:36;12.23;;;1.80;;
43744;SDS011;29359;53.048;8.732;2023-05-16T07:05:37;9.35;;;1.67;;
43744;SDS011;29359;53.048;8.732;2023-05-16T07:07:39;8.07;;;1.10;;
43744;SDS011;29359;53.048;8.732;2023-05-16T07:09:40;10.02;;;1.63;;
43744;SDS011;29359;53.048;8.732;2023-05-16T07:11:42;12.38;;;1.70;;
43744;SDS011;29359;53.048;8.732;2023-05-16T07:13:43;12.15;;;1.50;;
43744;SDS011;29359;53.048;8.732;2023-05-16T07:15:45;12.32;;;1.92;;
43744;SDS011;29359;53.048;8.732;2023-05-16T07:17:47;5.57;;;1.00;;
43744;SDS011;29359;53.048;8.732;2023-05-16T07:19:49;14.70;;;2.08;;
43744;SDS011;29359;53.048;8.732;2023-05-16T07:21:50;10.18;;;1.58;;
43744;SDS011;29359;53.048;8.732;2023-05-16T07:23:52;9.23;;;1.42;;
43744;SDS011;29359;53.048;8.732;2023-05-16T07:25:53;6.45;;;1.10;;
43744;SDS011;29359;53.048;8.732;2023-05-16T07:27:55;8.52;;;1.30;;
43744;SDS011;29359;53.048;8.732;2023-05-16T07:29:56;7.35;;;1.38;;
43744;SDS011;29359;53.048;8.732;2023-05-16T07:31:58;8.32;;;1.65;;
43744;SDS011;29359;53.048;8.732;2023-05-16T07:34:00;9.82;;;1.50;;
43744;SDS011;29359;53.048;8.732;2023-05-16T07:36:01;6.15;;;1.35;;
43744;SDS011;29359;53.048;8.732;2023-05-16T07:38:16;7.72;;;1.48;;
43744;SDS011;29359;53.048;8.732;2023-05-16T07:40:18;6.90;;;1.05;;
43744;SDS011;29359;53.048;8.732;2023-05-16T07:42:21;8.45;;;1.15;;
43744;SDS011;29359;53.048;8.732;2023-05-16T07:44:22;13.60;;;1.73;;
43744;SDS011;29359;53.048;8.732;2023-05-16T07:46:24;9.38;;;1.80;;
43744;SDS011;29359;53.048;8.732;2023-05-16T07:48:26;6.65;;;1.63;;
43744;SDS011;29359;53.048;8.732;2023-05-16T07:50:28;10.77;;;1.63;;
43744;SDS011;29359;53.048;8.732;2023-05-16T07:52:29;6.20;;;1.27;;
43744;SDS011;29359;53.048;8.732;2023-05-16T07:54:31;5.88;;;1.20;;
43744;SDS011;29359;53.048;8.732;2023-05-16T07:56:33;29.23;;;2.70;;
43744;SDS011;29359;53.048;8.732;2023-05-16T07:58:35;13.40;;;1.63;;
43744;SDS011;29359;53.048;8.732;2023-05-16T08:00:36;12.25;;;1.50;;
43744;SDS011;29359;53.048;8.732;2023-05-16T08:02:38;7.85;;;1.20;;
43744;SDS011;29359;53.048;8.732;2023-05-16T08:04:40;5.88;;;1.63;;
43744;SDS011;29359;53.048;8.732;2023-05-16T08:06:41;13.93;;;1.52;;
43744;SDS011;29359;53.048;8.732;2023-05-16T08:08:43;7.70;;;1.33;;
43744;SDS011;29359;53.048;8.732;2023-05-16T08:10:44;10.40;;;1.45;;
43744;SDS011;29359;53.048;8.732;2023-05-16T08:12:46;12.88;;;1.55;;
43744;SDS011;29359;53.048;8.732;2023-05-16T08:14:48;12.95;;;1.70;;
43744;SDS011;29359;53.048;8.732;2023-05-16T08:16:50;50.92;;;3.97;;
43744;SDS011;29359;53.048;8.732;2023-05-16T08:18:51;24.35;;;2.80;;
43744;SDS011;29359;53.048;8.732;2023-05-16T08:20:53;19.65;;;1.85;;
43744;SDS011;29359;53.048;8.732;2023-05-16T08:22:55;8.05;;;1.13;;
43744;SDS011;29359;53.048;8.732;2023-05-16T08:24:56;7.90;;;1.60;;
43744;SDS011;29359;53.048;8.732;2023-05-16T08:26:58;14.65;;;1.58;;
43744;SDS011;29359;53.048;8.732;2023-05-16T08:28:59;5.68;;;1.17;;
43744;SDS011;29359;53.048;8.732;2023-05-16T08:31:01;6.97;;;1.15;;
43744;SDS011;29359;53.048;8.732;2023-05-16T08:33:02;8.32;;;1.45;;
43744;SDS011;29359;53.048;8.732;2023-05-16T08:35:05;30.27;;;2.53;;
43744;SDS011;29359;53.048;8.732;2023-05-16T08:37:07;10.45;;;1.13;;
43744;SDS011;29359;53.048;8.732;2023-05-16T08:39:10;9.07;;;1.02;;
43744;SDS011;29359;53.048;8.732;2023-05-16T08:41:12;8.60;;;1.40;;
43744;SDS011;29359;53.048;8.732;2023-05-16T08:43:14;10.93;;;1.30;;
43744;SDS011;29359;53.048;8.732;2023-05-16T08:45:15;7.00;;;1.20;;
43744;SDS011;29359;53.048;8.732;2023-05-16T08:47:17;6.13;;;1.13;;
43744;SDS011;29359;53.048;8.732;2023-05-16T08:49:21;12.40;;;1.40;;
43744;SDS011;29359;53.048;8.732;2023-05-16T08:51:27;5.10;;;0.85;;
43744;SDS011;29359;53.048;8.732;2023-05-16T08:53:38;8.48;;;1.20;;
43744;SDS011;29359;53.048;8.732;2023-05-16T08:55:45;6.70;;;1.40;;
43744;SDS011;29359;53.048;8.732;2023-05-16T08:57:49;7.32;;;1.42;;
43744;SDS011;29359;53.048;8.732;2023-05-16T08:59:52;27.00;;;2.75;;
43744;SDS011;29359;53.048;8.732;2023-05-16T09:01:56;7.57;;;1.33;;
43744;SDS011;29359;53.048;8.732;2023-05-16T09:03:59;5.30;;;1.20;;
43744;SDS011;29359;53.048;8.732;2023-05-16T09:06:01;14.63;;;1.83;;
43744;SDS011;29359;53.048;8.732;2023-05-16T09:08:08;10.23;;;1.75;;
43744;SDS011;29359;53.048;8.732;2023-05-16T09:10:10;12.20;;;1.45;;
43744;SDS011;29359;53.048;8.732;2023-05-16T09:12:12;4.43;;;1.00;;
43744;SDS011;29359;53.048;8.732;2023-05-16T09:14:13;6.35;;;1.20;;
43744;SDS011;29359;53.048;8.732;2023-05-16T09:16:16;9.95;;;1.30;;
43744;SDS011;29359;53.048;8.732;2023-05-16T09:18:21;19.23;;;1.50;;
43744;SDS011;29359;53.048;8.732;2023-05-16T09:20:22;25.40;;;3.53;;
43744;SDS011;29359;53.048;8.732;2023-05-16T09:22:24;10.70;;;1.33;;
43744;SDS011;29359;53.048;8.732;2023-05-16T09:24:26;5.85;;;1.10;;
43744;SDS011;29359;53.048;8.732;2023-05-16T09:26:27;6.07;;;0.95;;
43744;SDS011;29359;53.048;8.732;2023-05-16T09:28:29;8.65;;;1.33;;
43744;SDS011;29359;53.048;8.732;2023-05-16T09:30:32;6.85;;;1.00;;
43744;SDS011;29359;53.048;8.732;2023-05-16T09:32:35;5.82;;;1.50;;
43744;SDS011;29359;53.048;8.732;2023-05-16T09:34:37;11.43;;;1.23;;
43744;SDS011;29359;53.048;8.732;2023-05-16T09:36:46;5.65;;;1.30;;
43744;SDS011;29359;53.048;8.732;2023-05-16T09:40:56;3.33;;;0.90;;
43744;SDS011;29359;53.048;8.732;2023-05-16T09:43:01;3.20;;;0.80;;
43744;SDS011;29359;53.048;8.732;2023-05-16T09:45:10;11.18;;;1.80;;
43744;SDS011;29359;53.048;8.732;2023-05-16T09:47:14;4.82;;;1.13;;
43744;SDS011;29359;53.048;8.732;2023-05-16T09:49:17;5.60;;;1.27;;
43744;SDS011;29359;53.048;8.732;2023-05-16T09:51:21;5.35;;;0.80;;
43744;SDS011;29359;53.048;8.732;2023-05-16T09:53:24;7.93;;;1.17;;
43744;SDS011;29359;53.048;8.732;2023-05-16T09:55:29;7.82;;;1.45;;
43744;SDS011;29359;53.048;8.732;2023-05-16T09:57:32;4.68;;;1.13;;
43744;SDS011;29359;53.048;8.732;2023-05-16T09:59:39;3.47;;;1.00;;
43744;SDS011;29359;53.048;8.732;2023-05-16T10:01:41;9.02;;;1.10;;
43744;SDS011;29359;53.048;8.732;2023-05-16T10:03:43;4.50;;;1.08;;
43744;SDS011;29359;53.048;8.732;2023-05-16T10:05:44;6.38;;;1.38;;
43744;SDS011;29359;53.048;8.732;2023-05-16T10:07:46;4.55;;;1.00;;
43744;SDS011;29359;53.048;8.732;2023-05-16T10:09:56;5.93;;;1.35;;
43744;SDS011;29359;53.048;8.732;2023-05-16T10:12:03;6.80;;;1.05;;
43744;SDS011;29359;53.048;8.732;2023-05-16T10:14:08;6.50;;;1.13;;
43744;SDS011;29359;53.048;8.732;2023-05-16T10:16:11;6.25;;;0.93;;
43744;SDS011;29359;53.048;8.732;2023-05-16T10:18:15;5.22;;;1.05;;
43744;SDS011;29359;53.048;8.732;2023-05-16T10:20:18;8.85;;;1.10;;
43744;SDS011;29359;53.048;8.732;2023-05-16T10:22:21;5.90;;;0.95;;
43744;SDS011;29359;53.048;8.732;2023-05-16T10:24:34;0.80;;;0.40;;
43744;SDS011;29359;53.048;8.732;2023-05-16T10:26:43;4.07;;;1.00;;
43744;SDS011;29359;53.048;8.732;2023-05-16T10:28:45;3.10;;;0.70;;
43744;SDS011;29359;53.048;8.732;2023-05-16T10:30:47;1.83;;;0.80;;
43744;SDS011;29359;53.048;8.732;2023-05-16T10:32:50;3.05;;;0.82;;
43744;SDS011;29359;53.048;8.732;2023-05-16T10:34:53;2.72;;;0.88;;
43744;SDS011;29359;53.048;8.732;2023-05-16T10:36:56;4.03;;;1.10;;
43744;SDS011;29359;53.048;8.732;2023-05-16T10:38:59;1.65;;;0.50;;
43744;SDS011;29359;53.048;8.732;2023-05-16T10:41:01;4.88;;;0.90;;
43744;SDS011;29359;53.048;8.732;2023-05-16T10:43:04;2.53;;;0.70;;
43744;SDS011;29359;53.048;8.732;2023-05-16T10:45:16;2.97;;;1.00;;
43744;SDS011;29359;53.048;8.732;2023-05-16T10:47:20;2.47;;;0.50;;
43744;SDS011;29359;53.048;8.732;2023-05-16T10:49:22;4.00;;;0.80;;
43744;SDS011;29359;53.048;8.732;2023-05-16T10:51:31;2.10;;;0.57;;
43744;SDS011;29359;53.048;8.732;2023-05-16T10:53:37;2.92;;;1.10;;
43744;SDS011;29359;53.048;8.732;2023-05-16T10:55:39;7.85;;;1.00;;
43744;SDS011;29359;53.048;8.732;2023-05-16T10:57:44;2.25;;;0.68;;
43744;SDS011;29359;53.048;8.732;2023-05-16T10:59:47;2.53;;;0.52;;
43744;SDS011;29359;53.048;8.732;2023-05-16T11:01:54;3.10;;;0.90;;
43744;SDS011;29359;53.048;8.732;2023-05-16T11:06:04;1.00;;;0.37;;
43744;SDS011;29359;53.048;8.732;2023-05-16T11:08:06;2.50;;;0.40;;
43744;SDS011;29359;53.048;8.732;2023-05-16T11:10:09;1.75;;;0.63;;
43744;SDS011;29359;53.048;8.732;2023-05-16T11:12:15;2.67;;;0.63;;
43744;SDS011;29359;53.048;8.732;2023-05-16T11:16:26;3.92;;;0.75;;
43744;SDS011;29359;53.048;8.732;2023-05-16T11:18:30;2.22;;;0.70;;
43744;SDS011;29359;53.048;8.732;2023-05-16T11:20:34;2.92;;;0.60;;
43744;SDS011;29359;53.048;8.732;2023-05-16T11:22:38;2.08;;;0.80;;
43744;SDS011;29359;53.048;8.732;2023-05-16T11:24:54;3.15;;;0.65;;
43744;SDS011;29359;53.048;8.732;2023-05-16T11:27:03;5.10;;;0.70;;
43744;SDS011;29359;53.048;8.732;2023-05-16T11:29:06;2.60;;;0.60;;
43744;SDS011;29359;53.048;8.732;2023-05-16T11:31:08;5.63;;;0.80;;
43744;SDS011;29359;53.048;8.732;2023-05-16T11:33:10;4.03;;;0.80;;
43744;SDS011;29359;53.048;8.732;2023-05-16T11:35:14;3.55;;;0.88;;
43744;SDS011;29359;53.048;8.732;2023-05-16T11:37:18;7.55;;;1.42;;
43744;SDS011;29359;53.048;8.732;2023-05-16T11:39:20;9.27;;;1.10;;
43744;SDS011;29359;53.048;8.732;2023-05-16T11:41:25;4.45;;;1.02;;
43744;SDS011;29359;53.048;8.732;2023-05-16T11:43:26;4.30;;;1.40;;
43744;SDS011;29359;53.048;8.732;2023-05-16T11:45:28;4.20;;;1.00;;
43744;SDS011;29359;53.048;8.732;2023-05-16T11:47:30;3.70;;;0.98;;
43744;SDS011;29359;53.048;8.732;2023-05-16T11:49:32;5.60;;;0.80;;
43744;SDS011;29359;53.048;8.732;2023-05-16T11:51:38;5.82;;;1.55;;
43744;SDS011;29359;53.048;8.732;2023-05-16T11:53:43;5.63;;;1.20;;
43744;SDS011;29359;53.048;8.732;2023-05-16T11:55:45;8.43;;;1.33;;
43744;SDS011;29359;53.048;8.732;2023-05-16T11:57:56;6.22;;;1.10;;
43744;SDS011;29359;53.048;8.732;2023-05-16T12:00:05;3.25;;;0.90;;
43744;SDS011;29359;53.048;8.732;2023-05-16T12:02:15;3.80;;;0.70;;
43744;SDS011;29359;53.048;8.732;2023-05-16T12:04:16;4.90;;;0.80;;
43744;SDS011;29359;53.048;8.732;2023-05-16T12:06:20;3.92;;;0.77;;
43744;SDS011;29359;53.048;8.732;2023-05-16T12:08:22;2.25;;;0.93;;
43744;SDS011;29359;53.048;8.732;2023-05-16T12:10:24;5.28;;;0.95;;
43744;SDS011;29359;53.048;8.732;2023-05-16T12:12:27;4.68;;;0.80;;
43744;SDS011;29359;53.048;8.732;2023-05-16T12:14:29;5.00;;;0.98;;
43744;SDS011;29359;53.048;8.732;2023-05-16T12:16:30;5.93;;;1.35;;
43744;SDS011;29359;53.048;8.732;2023-05-16T12:18:33;2.97;;;0.75;;
43744;SDS011;29359;53.048;8.732;2023-05-16T12:20:34;3.67;;;0.70;;
43744;SDS011;29359;53.048;8.732;2023-05-16T12:22:39;5.18;;;0.93;;
43744;SDS011;29359;53.048;8.732;2023-05-16T12:24:41;6.22;;;0.93;;
43744;SDS011;29359;53.048;8.732;2023-05-16T12:26:43;6.63;;;1.40;;
43744;SDS011;29359;53.048;8.732;2023-05-16T12:28:44;3.10;;;0.73;;